Time;durP1;ratioP1;P1;durP2;ratioP2;P2;SDS_P1;SDS_P2;PMS_P1;PMS_P2;Temp;Humidity;BMP_temperature;BMP_pressure;BME280_temperature;BME280_humidity;BME280_pressure;Samples;Min_cycle;Max_cycle;Signal;HPM_P1;HPM_P2
2022/10/21 00:01:10;;;;;;;1999.90;999.90;;;12.00;99.90;;;;;;5110103;27;20491;-65
2022/10/21 00:03:36;;;;;;;1999.90;999.90;;;12.00;99.90;;;;;;5110489;28;20035;-64
2022/10/21 00:06:02;;;;;;;1999.90;999.90;;;12.00;99.90;;;;;;5124063;27;20066;-65
2022/10/21 00:08:28;;;;;;;1999.90;999.90;;;12.00;99.90;;;;;;5073562;28;20147;-64
2022/10/21 00:11:00;;;;;;;1999.90;999.90;;;12.00;99.90;;;;;;5110869;28;20582;-64
2022/10/21 00:13:27;;;;;;;1999.90;999.90;;;12.00;99.90;;;;;;5109426;28;20385;-64
2022/10/21 00:16:17;;;;;;;1999.90;999.90;;;12.00;99.90;;;;;;5077328;28;20040;-64
2022/10/21 00:18:44;;;;;;;1999.90;999.90;;;12.00;99.90;;;;;;5093914;28;20137;-65
2022/10/21 00:21:13;;;;;;;1999.90;999.90;;;12.00;99.90;;;;;;5112144;27;20039;-64
2022/10/21 00:23:39;;;;;;;1999.90;999.90;;;12.00;99.90;;;;;;5088522;28;20134;-64
2022/10/21 00:26:05;;;;;;;1999.90;999.90;;;12.00;99.90;;;;;;5109795;28;20055;-65
2022/10/21 00:28:31;;;;;;;1999.90;999.90;;;11.90;99.90;;;;;;5101090;28;20044;-64
2022/10/21 00:30:57;;;;;;;1999.90;999.90;;;12.00;99.90;;;;;;5100800;28;20119;-64
2022/10/21 00:33:24;;;;;;;1999.90;999.90;;;12.00;99.90;;;;;;5108667;27;20108;-67
2022/10/21 00:35:56;;;;;;;1999.90;999.90;;;12.00;99.90;;;;;;5087231;28;20054;-64
2022/10/21 00:38:22;;;;;;;1999.90;999.90;;;12.00;99.90;;;;;;5110851;27;20386;-64
2022/10/21 00:40:47;;;;;;;1999.90;999.90;;;12.00;99.90;;;;;;5109517;28;20084;-65
2022/10/21 00:43:13;;;;;;;1999.90;999.90;;;12.00;99.90;;;;;;5108812;28;20561;-64
2022/10/21 00:45:39;;;;;;;1999.90;999.90;;;12.00;99.90;;;;;;5109301;28;20063;-64
2022/10/21 00:48:11;;;;;;;1999.90;999.90;;;12.00;99.90;;;;;;5096894;27;20157;-64
2022/10/21 00:50:42;;;;;;;1999.90;999.90;;;12.00;99.90;;;;;;5098224;28;20051;-64
2022/10/21 00:53:12;;;;;;;1999.90;999.90;;;12.00;99.90;;;;;;5089510;28;20059;-64
2022/10/21 00:55:47;;;;;;;1999.90;999.90;;;12.00;99.90;;;;;;5090507;28;20052;-65
2022/10/21 00:58:15;;;;;;;1999.90;999.90;;;12.00;99.90;;;;;;5109511;28;20578;-65
2022/10/21 01:00:41;;;;;;;1999.90;999.90;;;11.90;99.90;;;;;;5108414;28;20051;-64
2022/10/21 01:03:07;;;;;;;1999.90;999.90;;;11.90;99.90;;;;;;5091011;28;20040;-64
2022/10/21 01:05:35;;;;;;;1999.90;999.90;;;11.90;99.90;;;;;;5097380;27;20043;-65
2022/10/21 01:08:00;;;;;;;1999.90;999.90;;;11.90;99.90;;;;;;5106255;27;20047;-65
2022/10/21 01:10:27;;;;;;;1999.90;999.90;;;12.00;99.90;;;;;;5109432;28;20089;-65
2022/10/21 01:13:11;;;;;;;1999.90;999.90;;;12.00;99.90;;;;;;5090510;28;20366;-64
2022/10/21 01:15:46;;;;;;;1999.90;999.90;;;12.00;99.90;;;;;;5096038;28;20047;-64
2022/10/21 01:18:34;;;;;;;1999.90;999.90;;;12.00;99.90;;;;;;5086467;27;20569;-64
2022/10/21 01:21:29;;;;;;;1999.90;999.90;;;12.00;99.90;;;;;;5096063;27;20127;-64
2022/10/21 01:24:03;;;;;;;1999.90;999.90;;;12.00;99.90;;;;;;5073956;28;20036;-64
2022/10/21 01:27:07;;;;;;;1999.90;999.90;;;12.00;99.90;;;;;;5073075;28;20054;-65
2022/10/21 01:29:41;;;;;;;1999.90;999.90;;;12.00;99.90;;;;;;5075933;28;20062;-65
2022/10/21 01:32:25;;;;;;;1999.90;999.90;;;12.00;99.90;;;;;;5106692;27;20073;-65
2022/10/21 01:35:10;;;;;;;1999.90;999.90;;;12.00;99.90;;;;;;5108549;28;20047;-65
2022/10/21 01:37:54;;;;;;;1999.90;999.90;;;12.00;99.90;;;;;;5105889;27;20473;-64
2022/10/21 01:40:40;;;;;;;1999.90;999.90;;;11.90;99.90;;;;;;5100792;28;20039;-64
2022/10/21 01:43:27;;;;;;;1999.90;999.90;;;11.90;99.90;;;;;;5090451;28;20169;-65
2022/10/21 01:45:58;;;;;;;1999.90;999.90;;;11.90;99.90;;;;;;5108727;27;20058;-65
2022/10/21 01:48:29;;;;;;;1999.90;999.90;;;11.90;99.90;;;;;;5089179;28;20493;-64
2022/10/21 01:51:01;;;;;;;1999.90;999.90;;;12.00;99.90;;;;;;5090659;28;20039;-65
2022/10/21 01:53:30;;;;;;;1999.90;999.90;;;11.90;99.90;;;;;;5089779;28;20039;-65
2022/10/21 01:56:00;;;;;;;1999.90;999.90;;;12.00;99.90;;;;;;5103691;28;20123;-64
2022/10/21 01:58:30;;;;;;;1999.90;999.90;;;12.00;99.90;;;;;;5100595;27;20114;-64
2022/10/21 02:00:59;;;;;;;1999.90;999.90;;;12.00;99.90;;;;;;5105869;28;20044;-65
2022/10/21 02:03:37;;;;;;;1999.90;999.90;;;12.00;99.90;;;;;;5099707;28;20494;-64
2022/10/21 02:06:03;;;;;;;1999.90;999.90;;;12.00;99.90;;;;;;5087288;28;20047;-64
2022/10/21 02:08:29;;;;;;;1999.90;999.90;;;12.10;99.90;;;;;;5105988;28;20464;-65
2022/10/21 02:11:01;;;;;;;1999.90;999.90;;;12.10;99.90;;;;;;5098240;28;20071;-64
2022/10/21 02:13:34;;;;;;;1999.90;999.90;;;12.10;99.90;;;;;;5108348;28;20028;-64
2022/10/21 02:16:02;;;;;;;1999.90;999.90;;;12.10;99.90;;;;;;5107603;28;20047;-65
2022/10/21 02:18:28;;;;;;;1999.90;999.90;;;12.20;99.90;;;;;;5101813;28;20367;-65
2022/10/21 02:20:59;;;;;;;1999.90;999.90;;;12.20;99.90;;;;;;5095127;28;20086;-64
2022/10/21 02:23:38;;;;;;;1999.90;999.90;;;12.30;99.90;;;;;;5101816;28;20113;-65
2022/10/21 02:26:04;;;;;;;1999.90;999.90;;;12.30;99.90;;;;;;5090003;28;20052;-65
2022/10/21 02:28:31;;;;;;;1999.90;999.90;;;12.30;99.90;;;;;;5091860;28;20043;-64
2022/10/21 02:31:26;;;;;;;1999.90;999.90;;;12.40;99.90;;;;;;5108130;28;20050;-64
2022/10/21 02:34:12;;;;;;;1999.90;999.90;;;12.40;99.90;;;;;;5097391;28;20055;-65
2022/10/21 02:36:37;;;;;;;1999.90;999.90;;;12.50;99.90;;;;;;5112926;28;20462;-64
2022/10/21 02:39:13;;;;;;;1999.90;999.90;;;12.60;99.90;;;;;;5105371;28;20043;-65
2022/10/21 02:41:41;;;;;;;1999.90;999.90;;;12.60;99.90;;;;;;5094237;28;20039;-64
2022/10/21 02:44:07;;;;;;;1999.90;999.90;;;12.70;99.90;;;;;;5112254;27;20119;-64
2022/10/21 02:46:39;;;;;;;1999.90;999.90;;;12.80;99.90;;;;;;5095931;28;20048;-65
2022/10/21 02:49:05;;;;;;;1999.90;999.90;;;12.90;99.90;;;;;;5112618;28;20397;-65
2022/10/21 02:51:31;;;;;;;1999.90;999.90;;;13.00;99.90;;;;;;5091559;28;20058;-65
2022/10/21 02:53:57;;;;;;;1999.90;999.90;;;13.10;99.90;;;;;;5112138;28;20047;-65
2022/10/21 02:56:22;;;;;;;1999.90;999.90;;;13.20;99.90;;;;;;5111601;27;20031;-66
2022/10/21 02:58:48;;;;;;;1999.90;999.90;;;13.20;99.90;;;;;;5111978;28;20150;-65
2022/10/21 03:01:13;;;;;;;1999.90;999.90;;;13.20;99.90;;;;;;5095521;28;20032;-65
2022/10/21 03:03:39;;;;;;;1999.90;999.90;;;13.20;99.90;;;;;;5107049;27;20036;-66
2022/10/21 03:06:05;;;;;;;1999.90;999.90;;;13.20;99.90;;;;;;5074982;28;20051;-66
2022/10/21 03:08:30;;;;;;;1999.90;999.90;;;13.10;99.90;;;;;;5110843;27;20038;-66
2022/10/21 03:10:56;;;;;;;1999.90;999.90;;;13.10;99.90;;;;;;5106928;27;20542;-66
2022/10/21 03:13:22;;;;;;;1999.90;999.90;;;13.10;99.90;;;;;;5117597;27;20031;-66
2022/10/21 03:15:50;;;;;;;1999.90;999.90;;;13.10;99.90;;;;;;5131561;27;20072;-66
2022/10/21 03:18:16;;;;;;;1999.90;999.90;;;13.10;99.90;;;;;;5095329;27;20035;-66
2022/10/21 03:20:42;;;;;;;1999.90;999.90;;;13.00;99.90;;;;;;5122235;27;20039;-66
2022/10/21 03:23:07;;;;;;;1999.90;999.90;;;13.00;99.90;;;;;;5109676;27;20047;-65
2022/10/21 03:25:33;;;;;;;1999.90;999.90;;;13.00;99.90;;;;;;5111651;28;20035;-66
2022/10/21 03:27:58;;;;;;;1999.90;999.90;;;13.00;99.90;;;;;;5093042;28;20054;-66
2022/10/21 03:30:24;;;;;;;1999.90;999.90;;;13.00;99.90;;;;;;5091914;28;20344;-66
2022/10/21 03:32:50;;;;;;;1999.90;999.90;;;12.90;99.90;;;;;;5111218;28;20039;-66
2022/10/21 03:35:15;;;;;;;1999.90;999.90;;;12.90;99.90;;;;;;5114051;27;20039;-66
2022/10/21 03:37:41;;;;;;;1999.90;999.90;;;12.90;99.90;;;;;;5115434;27;20037;-66
2022/10/21 03:40:07;;;;;;;1999.90;999.90;;;12.80;99.90;;;;;;5109797;27;20031;-66
2022/10/21 03:42:32;;;;;;;1999.90;999.90;;;12.80;99.90;;;;;;5111112;28;20031;-66
2022/10/21 03:44:58;;;;;;;1999.90;999.90;;;12.80;99.90;;;;;;5075241;28;20063;-66
2022/10/21 03:47:23;;;;;;;1999.90;999.90;;;12.70;99.90;;;;;;5110609;28;20036;-66
2022/10/21 03:49:49;;;;;;;1999.90;999.90;;;12.70;99.90;;;;;;5092865;28;20168;-66
2022/10/21 03:52:15;;;;;;;1999.90;999.90;;;12.70;99.90;;;;;;5101928;27;20043;-66
2022/10/21 03:54:40;;;;;;;1999.90;999.90;;;12.70;99.90;;;;;;5109542;27;20042;-66
2022/10/21 03:57:07;;;;;;;1999.90;999.90;;;12.70;99.90;;;;;;5110074;28;20135;-65
2022/10/21 03:59:32;;;;;;;1999.90;999.90;;;12.70;99.90;;;;;;5110713;28;20047;-66
2022/10/21 04:01:58;;;;;;;1999.90;999.90;;;12.70;99.90;;;;;;5109964;27;20035;-66
2022/10/21 04:04:23;;;;;;;1999.90;999.90;;;12.70;99.90;;;;;;5106709;28;20093;-66
2022/10/21 04:06:49;;;;;;;1999.90;999.90;;;12.70;99.90;;;;;;5111135;27;20063;-66
2022/10/21 04:09:15;;;;;;;1999.90;999.90;;;12.70;99.90;;;;;;5108460;28;20051;-66
2022/10/21 04:11:40;;;;;;;1999.90;999.90;;;12.70;99.90;;;;;;5093874;28;20048;-66
2022/10/21 04:14:06;;;;;;;1999.90;999.90;;;12.70;99.90;;;;;;5093349;27;20142;-66
2022/10/21 04:16:32;;;;;;;1999.90;999.90;;;12.70;99.90;;;;;;5112006;27;20108;-66
2022/10/21 04:18:58;;;;;;;1999.90;999.90;;;12.70;99.90;;;;;;5109762;28;20036;-65
2022/10/21 04:21:24;;;;;;;1999.90;999.90;;;12.60;99.90;;;;;;5089838;28;20041;-66
2022/10/21 04:23:50;;;;;;;1999.90;999.90;;;12.60;99.90;;;;;;5090180;28;20040;-66
2022/10/21 04:26:15;;;;;;;1999.90;999.90;;;12.60;99.90;;;;;;5094923;27;20039;-66
2022/10/21 04:28:41;;;;;;;1999.90;999.90;;;12.60;99.90;;;;;;5101645;28;20039;-65
2022/10/21 04:31:06;;;;;;;1999.90;999.90;;;12.60;99.90;;;;;;5090605;28;20053;-65
2022/10/21 04:33:32;;;;;;;1999.90;999.90;;;12.60;99.90;;;;;;5077517;27;20069;-66
2022/10/21 04:36:00;;;;;;;1999.90;999.90;;;12.60;99.90;;;;;;5077452;28;20058;-66
2022/10/21 04:38:26;;;;;;;1999.90;999.90;;;12.60;99.90;;;;;;5090252;28;20481;-66
2022/10/21 04:41:01;;;;;;;1999.90;999.90;;;12.60;99.90;;;;;;5098660;28;20043;-66
2022/10/21 04:43:27;;;;;;;1999.90;999.90;;;12.50;99.90;;;;;;5110720;27;20031;-65
2022/10/21 04:45:53;;;;;;;1999.90;999.90;;;12.50;99.90;;;;;;5109126;27;20055;-65
2022/10/21 04:48:19;;;;;;;1999.90;999.90;;;12.50;99.90;;;;;;5104866;27;20057;-65
2022/10/21 04:50:48;;;;;;;1999.90;999.90;;;12.40;99.90;;;;;;5111643;27;20043;-66
2022/10/21 04:53:13;;;;;;;1999.90;999.90;;;12.40;99.90;;;;;;5089160;28;20489;-66
2022/10/21 04:55:39;;;;;;;1999.90;999.90;;;12.40;99.90;;;;;;5109138;28;20389;-66
2022/10/21 04:58:05;;;;;;;1999.90;999.90;;;12.40;99.90;;;;;;5109012;27;20127;-65
2022/10/21 05:00:31;;;;;;;1999.90;999.90;;;12.40;99.90;;;;;;5085160;28;20473;-65
2022/10/21 05:02:57;;;;;;;1999.90;999.90;;;12.30;99.90;;;;;;5094838;28;20027;-65
2022/10/21 05:05:22;;;;;;;1999.90;999.90;;;12.30;99.90;;;;;;5083156;28;20039;-66
2022/10/21 05:07:48;;;;;;;1999.90;999.90;;;12.30;99.90;;;;;;5101132;28;20039;-65
2022/10/21 05:10:13;;;;;;;1999.90;999.90;;;12.30;99.90;;;;;;5109007;28;20035;-66
2022/10/21 05:12:39;;;;;;;1999.90;999.90;;;12.30;99.90;;;;;;5108139;28;20048;-65
2022/10/21 05:15:05;;;;;;;1999.90;999.90;;;12.30;99.90;;;;;;5111705;27;20053;-65
2022/10/21 05:17:30;;;;;;;1999.90;999.90;;;12.30;99.90;;;;;;5116502;27;20040;-66
2022/10/21 05:19:56;;;;;;;1999.90;999.90;;;12.30;99.90;;;;;;5108730;27;20036;-66
2022/10/21 05:22:22;;;;;;;1999.90;999.90;;;12.30;99.90;;;;;;5117854;27;20040;-66
2022/10/21 05:24:47;;;;;;;1999.90;999.90;;;12.30;99.90;;;;;;5093598;27;20039;-65
2022/10/21 05:27:13;;;;;;;1999.90;999.90;;;12.30;99.90;;;;;;5078266;28;20499;-65
2022/10/21 05:29:38;;;;;;;1999.90;999.90;;;12.30;99.90;;;;;;5094173;28;20044;-65
2022/10/21 05:32:04;;;;;;;1999.90;999.90;;;12.40;99.90;;;;;;5108178;28;20118;-66
2022/10/21 05:34:30;;;;;;;1999.90;999.90;;;12.30;99.90;;;;;;5101387;28;20039;-66
2022/10/21 05:36:55;;;;;;;1999.90;999.90;;;12.40;99.90;;;;;;5084273;28;20036;-65
2022/10/21 05:39:21;;;;;;;1999.90;999.90;;;12.40;99.90;;;;;;5098319;27;20039;-66
2022/10/21 05:41:46;;;;;;;1999.90;999.90;;;12.50;99.90;;;;;;5097973;28;20070;-65
2022/10/21 05:44:12;;;;;;;1999.90;999.90;;;12.50;99.90;;;;;;5094202;28;20109;-65
2022/10/21 05:46:37;;;;;;;1999.90;999.90;;;12.60;99.90;;;;;;5093696;28;20092;-65
2022/10/21 05:49:03;;;;;;;1999.90;999.90;;;12.60;99.90;;;;;;5107835;28;20154;-65
2022/10/21 05:51:29;;;;;;;1999.90;999.90;;;12.60;99.90;;;;;;5089819;28;20063;-65
2022/10/21 05:53:55;;;;;;;1999.90;999.90;;;12.60;99.90;;;;;;5113217;27;20035;-65
2022/10/21 05:56:21;;;;;;;1999.90;999.90;;;12.60;99.90;;;;;;5097152;28;20409;-65
2022/10/21 05:58:46;;;;;;;1999.90;999.90;;;12.50;99.90;;;;;;5103104;27;20040;-65
2022/10/21 06:01:12;;;;;;;1999.90;999.90;;;12.50;99.90;;;;;;5085114;28;20059;-66
2022/10/21 06:03:38;;;;;;;1999.90;999.90;;;12.50;99.90;;;;;;5101803;28;20046;-65
2022/10/21 06:06:06;;;;;;;1999.90;999.90;;;12.40;99.90;;;;;;5095803;28;20128;-65
2022/10/21 06:08:34;;;;;;;1999.90;999.90;;;12.40;99.90;;;;;;5107727;28;20038;-65
2022/10/21 06:11:05;;;;;;;1999.90;999.90;;;12.40;99.90;;;;;;5091984;27;20047;-66
2022/10/21 06:13:31;;;;;;;1999.90;999.90;;;12.40;99.90;;;;;;5110794;27;20386;-65
2022/10/21 06:15:57;;;;;;;1999.90;999.90;;;12.50;99.90;;;;;;5092202;28;20036;-65
2022/10/21 06:18:23;;;;;;;1999.90;999.90;;;12.60;99.90;;;;;;5093911;28;20047;-65
2022/10/21 06:20:49;;;;;;;1999.90;999.90;;;12.60;99.90;;;;;;5109413;28;20080;-65
2022/10/21 06:23:15;;;;;;;1999.90;999.90;;;12.60;99.90;;;;;;5107884;28;20036;-65
2022/10/21 06:25:41;;;;;;;1999.90;999.90;;;12.70;99.90;;;;;;5113294;28;20050;-66
2022/10/21 06:28:07;;;;;;;1999.90;999.90;;;12.80;99.90;;;;;;5096739;28;20039;-66
2022/10/21 06:30:33;;;;;;;1999.90;999.90;;;12.80;99.90;;;;;;5109315;28;20405;-66
2022/10/21 06:32:59;;;;;;;1999.90;999.90;;;12.80;99.90;;;;;;5108497;28;20588;-65
2022/10/21 06:35:24;;;;;;;1999.90;999.90;;;12.90;99.90;;;;;;5080677;28;20122;-66
2022/10/21 06:37:50;;;;;;;1999.90;999.90;;;12.90;99.90;;;;;;5107849;28;20074;-65
2022/10/21 06:40:16;;;;;;;1999.90;999.90;;;12.90;99.90;;;;;;5108096;28;20082;-66
2022/10/21 06:42:41;;;;;;;1999.90;999.90;;;12.90;99.90;;;;;;5107826;28;20416;-65
2022/10/21 06:45:07;;;;;;;1999.90;999.90;;;12.90;99.90;;;;;;5101969;28;20051;-65
2022/10/21 06:47:33;;;;;;;1999.90;999.90;;;12.90;99.90;;;;;;5110396;28;20375;-65
2022/10/21 06:50:01;;;;;;;1999.90;999.90;;;12.90;99.90;;;;;;5114396;28;20051;-65
2022/10/21 06:52:29;;;;;;;1999.90;999.90;;;12.90;99.90;;;;;;5107172;28;20039;-65
2022/10/21 06:54:54;;;;;;;1999.90;999.90;;;13.00;99.90;;;;;;5078125;28;20055;-65
2022/10/21 06:57:20;;;;;;;1999.90;999.90;;;13.00;99.90;;;;;;5093577;28;20031;-66
2022/10/21 06:59:46;;;;;;;1999.90;999.90;;;13.00;99.90;;;;;;5110419;28;20032;-65
2022/10/21 07:02:12;;;;;;;1999.90;999.90;;;13.10;99.90;;;;;;5094762;28;20064;-65
2022/10/21 07:04:37;;;;;;;1999.90;999.90;;;13.10;99.90;;;;;;5108036;28;20066;-66
2022/10/21 07:07:03;;;;;;;1999.90;999.90;;;13.10;99.90;;;;;;5113369;28;20054;-65
2022/10/21 07:09:29;;;;;;;1999.90;999.90;;;13.20;99.90;;;;;;5070427;28;20473;-65
2022/10/21 07:11:55;;;;;;;1999.90;999.90;;;13.20;99.90;;;;;;5096154;28;20063;-65
2022/10/21 07:14:20;;;;;;;1999.90;999.90;;;13.20;99.90;;;;;;5088364;28;20047;-65
2022/10/21 07:16:47;;;;;;;1999.90;999.90;;;13.20;99.90;;;;;;5108168;28;20040;-65
2022/10/21 07:19:13;;;;;;;1999.90;999.90;;;13.10;99.90;;;;;;5107605;28;20058;-65
2022/10/21 07:21:39;;;;;;;1999.90;999.90;;;13.10;99.90;;;;;;5106680;28;20374;-65
2022/10/21 07:24:05;;;;;;;1999.90;999.90;;;13.10;99.90;;;;;;5107896;28;20039;-65
2022/10/21 07:26:32;;;;;;;1999.90;999.90;;;13.00;99.90;;;;;;5107407;28;20139;-65
2022/10/21 07:28:59;;;;;;;1999.90;999.90;;;13.00;99.90;;;;;;5107828;28;20397;-65
2022/10/21 07:31:26;;;;;;;1999.90;999.90;;;13.00;99.90;;;;;;5105788;28;20126;-65
2022/10/21 07:33:52;;;;;;;1999.90;999.90;;;13.00;99.90;;;;;;5111158;28;20524;-65
2022/10/21 07:36:24;;;;;;;1999.90;999.90;;;12.90;99.90;;;;;;5089512;28;20504;-65
2022/10/21 07:38:50;;;;;;;1999.90;999.90;;;12.90;99.90;;;;;;5102736;27;20378;-65
2022/10/21 07:41:22;;;;;;;1999.90;999.90;;;12.90;99.90;;;;;;5111188;28;20047;-65
2022/10/21 07:43:48;;;;;;;1999.90;999.90;;;12.90;99.90;;;;;;5106170;28;20087;-65
2022/10/21 07:46:14;;;;;;;1999.90;999.90;;;13.00;99.90;;;;;;5111491;28;20066;-66
2022/10/21 07:48:40;;;;;;;1999.90;999.90;;;13.00;99.90;;;;;;5083265;28;20035;-65
2022/10/21 07:51:08;;;;;;;1999.90;999.90;;;13.00;99.90;;;;;;5104723;28;20532;-65
2022/10/21 07:53:34;;;;;;;1999.90;999.90;;;13.00;99.90;;;;;;5090859;28;20165;-65
2022/10/21 07:56:06;;;;;;;1999.90;999.90;;;13.00;99.90;;;;;;5110771;28;20122;-65
2022/10/21 07:58:31;;;;;;;1999.90;999.90;;;13.00;99.90;;;;;;5110739;28;20035;-65
2022/10/21 08:01:02;;;;;;;1999.90;999.90;;;13.00;99.90;;;;;;5111236;28;20050;-65
2022/10/21 08:03:28;;;;;;;1999.90;999.90;;;13.00;99.90;;;;;;5098597;28;20051;-65
2022/10/21 08:05:55;;;;;;;1999.90;999.90;;;13.00;99.90;;;;;;5110309;28;20034;-65
2022/10/21 08:08:20;;;;;;;1999.90;999.90;;;13.00;99.90;;;;;;5110731;27;20058;-65
2022/10/21 08:10:47;;;;;;;1999.90;999.90;;;13.00;99.90;;;;;;5126285;27;20039;-66
2022/10/21 08:13:13;;;;;;;1999.90;999.90;;;13.10;99.90;;;;;;5127069;27;20076;-66
2022/10/21 08:15:47;;;;;;;1999.90;999.90;;;13.10;99.90;;;;;;5091982;28;20047;-65
2022/10/21 08:18:14;;;;;;;1999.90;999.90;;;13.10;99.90;;;;;;5087145;28;20096;-65
2022/10/21 08:20:44;;;;;;;1999.90;999.90;;;13.20;99.90;;;;;;5077285;28;20054;-65
2022/10/21 08:23:15;;;;;;;1999.90;999.90;;;13.20;99.90;;;;;;5110998;27;20435;-65
2022/10/21 08:25:47;;;;;;;1999.90;999.90;;;13.30;99.90;;;;;;5101551;28;20040;-65
2022/10/21 08:28:13;;;;;;;1999.90;999.90;;;13.40;99.90;;;;;;5109911;27;20040;-66
2022/10/21 08:30:38;;;;;;;1999.90;999.90;;;13.40;99.90;;;;;;5093038;28;20088;-66
2022/10/21 08:33:04;;;;;;;1999.90;999.90;;;13.50;99.90;;;;;;5094359;28;20043;-65
2022/10/21 08:35:30;;;;;;;1999.90;999.90;;;13.50;99.90;;;;;;5088884;28;20170;-65
2022/10/21 08:37:56;;;;;;;1999.90;999.90;;;13.60;99.90;;;;;;5103815;28;20051;-66
2022/10/21 08:40:22;;;;;;;1999.90;999.90;;;13.70;99.90;;;;;;5093164;28;20048;-65
2022/10/21 08:42:47;;;;;;;1999.90;999.90;;;13.80;99.90;;;;;;5085646;28;20044;-65
2022/10/21 08:45:18;;;;;;;1999.90;999.90;;;13.90;99.90;;;;;;5109013;28;20048;-65
2022/10/21 08:47:53;;;;;;;1999.90;999.90;;;13.90;99.90;;;;;;5114404;27;20055;-65
2022/10/21 08:50:27;;;;;;;1999.90;999.90;;;14.00;99.90;;;;;;5107224;28;20396;-65
2022/10/21 08:53:15;;;;;;;1999.90;999.90;;;14.20;99.90;;;;;;5109498;28;20031;-65
2022/10/21 08:55:43;;;;;;;1999.90;999.90;;;14.40;99.90;;;;;;5106879;28;20126;-65
2022/10/21 08:58:18;;;;;;;1999.90;999.90;;;14.60;99.90;;;;;;5109835;28;20087;-65
2022/10/21 09:00:51;;;;;;;1999.90;999.90;;;14.70;99.90;;;;;;5103813;28;20127;-65
2022/10/21 09:03:22;;;;;;;1999.90;999.90;;;14.70;99.90;;;;;;5108735;28;20043;-65
2022/10/21 09:06:15;;;;;;;1999.90;999.90;;;14.80;99.90;;;;;;5093169;28;20036;-66
2022/10/21 09:08:45;;;;;;;;;;;14.90;99.90;;;;;;5098970;28;20044;-65
2022/10/21 09:11:35;;;;;;;1999.90;999.90;;;15.00;99.90;;;;;;5089056;28;19919;-66
2022/10/21 09:14:14;;;;;;;1999.90;999.90;;;15.10;99.90;;;;;;5108583;27;20169;-66
2022/10/21 09:17:06;;;;;;;1999.90;999.90;;;15.20;99.90;;;;;;5096821;28;20042;-65
2022/10/21 09:20:09;;;;;;;1999.90;999.90;;;15.40;99.90;;;;;;5108986;28;20044;-65
2022/10/21 09:22:51;;;;;;;1999.90;999.90;;;15.50;99.90;;;;;;5108790;28;20499;-65
2022/10/21 09:25:23;;;;;;;1999.90;999.90;;;15.70;99.90;;;;;;5077858;28;20537;-65
2022/10/21 09:27:49;;;;;;;1999.90;999.90;;;15.90;99.90;;;;;;5109016;28;20047;-65
2022/10/21 09:30:20;;;;;;;1999.90;999.90;;;15.90;99.90;;;;;;5108271;28;20091;-65
2022/10/21 09:32:48;;;;;;;1999.90;999.90;;;16.00;99.90;;;;;;5100862;28;20039;-65
2022/10/21 09:35:57;;;;;;;1999.90;999.90;;;16.10;99.90;;;;;;5083723;28;20511;-65
2022/10/21 09:38:46;;;;;;;1999.90;999.90;;;16.30;99.90;;;;;;5049304;28;20048;-65
2022/10/21 09:41:22;;;;;;;1999.90;999.90;;;16.20;99.90;;;;;;5058510;28;20593;-65
2022/10/21 09:43:49;;;;;;;1999.90;999.90;;;16.20;99.90;;;;;;5095651;28;20139;-65
2022/10/21 09:46:15;;;;;;;1999.90;999.90;;;16.10;99.90;;;;;;5078043;28;20055;-65
2022/10/21 09:48:47;;;;;;;1999.90;999.90;;;16.10;99.90;;;;;;5107438;28;20059;-65
2022/10/21 09:51:21;;;;;;;1999.90;999.90;;;16.10;99.90;;;;;;5107697;28;20054;-65
2022/10/21 09:53:52;;;;;;;1999.90;999.90;;;16.20;99.90;;;;;;5091613;27;20040;-65
2022/10/21 09:56:22;;;;;;;1999.90;999.90;;;16.10;99.90;;;;;;5089374;28;20075;-65
2022/10/21 09:59:09;;;;;;;1999.90;999.90;;;16.20;99.90;;;;;;5090530;28;20598;-65
2022/10/21 10:01:36;;;;;;;1999.90;999.90;;;16.30;99.90;;;;;;5104910;28;20405;-65
2022/10/21 10:04:21;;;;;;;1999.90;999.90;;;16.40;99.90;;;;;;5101509;28;20062;-65
2022/10/21 10:06:47;;;;;;;1999.90;999.90;;;16.40;99.90;;;;;;5108092;28;20070;-65
2022/10/21 10:09:24;;;;;;;1999.90;999.90;;;16.50;99.90;;;;;;5098602;28;20035;-65
2022/10/21 10:11:59;;;;;;;1999.90;999.90;;;16.50;99.90;;;;;;5108148;28;20070;-65
2022/10/21 10:14:37;;;;;;;1999.90;999.90;;;16.50;99.90;;;;;;5106109;28;20050;-65
2022/10/21 10:17:30;;;;;;;1999.90;999.90;;;16.40;99.90;;;;;;5108085;28;20535;-65
2022/10/21 10:20:18;;;;;;;1999.90;999.90;;;16.40;99.90;;;;;;5107117;28;20065;-65
2022/10/21 10:22:59;;;;;;;1999.90;999.90;;;16.50;99.90;;;;;;5107839;27;20043;-65
2022/10/21 10:25:29;;;;;;;1999.90;999.90;;;16.70;99.90;;;;;;5115349;28;20045;-65
2022/10/21 10:28:02;;;;;;;1999.90;999.90;;;16.70;99.90;;;;;;5107677;27;20309;-65
2022/10/21 10:30:54;;;;;;;1999.90;999.90;;;16.70;99.90;;;;;;5087761;28;20047;-66
2022/10/21 10:33:30;;;;;;;1999.90;999.90;;;16.70;99.90;;;;;;5080782;28;20043;-65
2022/10/21 10:35:58;;;;;;;1999.90;999.90;;;16.80;99.90;;;;;;5107966;28;20040;-65
2022/10/21 10:38:59;;;;;;;1999.90;999.90;;;16.80;99.90;;;;;;5107394;28;20384;-65
2022/10/21 10:41:36;;;;;;;1999.90;999.90;;;16.80;99.90;;;;;;5106670;28;20060;-65
2022/10/21 10:44:09;;;;;;;1999.90;999.90;;;16.80;99.90;;;;;;5105952;28;20055;-65
2022/10/21 10:46:36;;;;;;;1999.90;999.90;;;16.80;99.90;;;;;;5101677;28;20512;-65
2022/10/21 10:49:11;;;;;;;1999.90;999.90;;;16.80;99.90;;;;;;5102268;28;20446;-65
2022/10/21 10:51:37;;;;;;;1999.90;999.90;;;16.80;99.90;;;;;;5110837;28;20116;-65
2022/10/21 10:54:15;;;;;;;1999.90;999.90;;;16.80;99.90;;;;;;5084392;28;20036;-65
2022/10/21 10:56:59;;;;;;;1999.90;999.90;;;16.90;99.90;;;;;;5104036;28;20028;-65
2022/10/21 10:59:34;;;;;;;1999.90;999.90;;;16.90;99.90;;;;;;5092029;28;20048;-65
2022/10/21 11:02:06;;;;;;;1999.90;999.90;;;16.90;99.90;;;;;;5084261;28;20138;-65
2022/10/21 11:04:57;;;;;;;1999.90;999.90;;;16.90;99.90;;;;;;5085565;28;20069;-65
2022/10/21 11:07:38;;;;;;;1999.90;999.90;;;16.90;99.90;;;;;;5104805;27;20040;-65
2022/10/21 11:10:12;;;;;;;1999.90;999.90;;;16.90;99.90;;;;;;5117890;27;20051;-65
2022/10/21 11:12:38;;;;;;;1999.90;999.90;;;16.90;99.90;;;;;;5111675;27;20035;-65
2022/10/21 11:15:12;;;;;;;1999.90;999.90;;;16.80;99.90;;;;;;5120158;27;20039;-65
2022/10/21 11:17:42;;;;;;;1999.90;999.90;;;16.80;99.90;;;;;;5121832;27;20038;-65
2022/10/21 11:20:37;;;;;;;1999.90;999.90;;;16.80;99.90;;;;;;5114389;27;20047;-65
2022/10/21 11:23:33;;;;;;;1999.90;999.90;;;16.80;99.90;;;;;;5041021;28;20068;-65
2022/10/21 11:26:12;;;;;;;1999.90;999.90;;;16.90;99.90;;;;;;5043644;28;20235;-65
2022/10/21 11:28:46;;;;;;;1999.90;999.90;;;16.90;99.90;;;;;;5043506;28;20052;-65
2022/10/21 11:31:47;;;;;;;1999.90;999.90;;;16.90;99.90;;;;;;5046169;28;20507;-65
2022/10/21 11:34:21;;;;;;;1999.90;999.90;;;16.90;99.90;;;;;;5039389;28;23063;-65
2022/10/21 11:36:56;;;;;;;1999.90;999.90;;;17.00;99.90;;;;;;5028874;28;20453;-65
2022/10/21 11:39:21;;;;;;;1999.90;999.90;;;17.00;99.90;;;;;;5023366;28;20073;-65
2022/10/21 11:41:50;;;;;;;1999.90;999.90;;;16.90;99.90;;;;;;5039757;28;20128;-65
2022/10/21 11:44:24;;;;;;;1999.90;999.90;;;16.90;99.90;;;;;;5051529;28;20066;-65
2022/10/21 11:47:10;;;;;;;1999.90;999.90;;;17.00;99.90;;;;;;5050096;28;20123;-65
2022/10/21 11:49:53;;;;;;;1999.90;999.90;;;17.00;99.90;;;;;;5044554;28;20395;-66
2022/10/21 11:52:56;;;;;;;1999.90;999.90;;;17.00;99.90;;;;;;5047321;28;20107;-65
2022/10/21 11:55:54;;;;;;;1999.90;999.90;;;16.90;99.90;;;;;;5039511;28;20045;-65
2022/10/21 11:58:36;;;;;;;1999.90;999.90;;;16.90;99.90;;;;;;5040975;28;20041;-65
2022/10/21 12:01:13;;;;;;;1999.90;999.90;;;16.90;99.90;;;;;;5103726;28;20078;-65
2022/10/21 12:04:11;;;;;;;1999.90;999.90;;;16.90;99.90;;;;;;5113347;27;20035;-65
2022/10/21 12:07:14;;;;;;;1999.90;999.90;;;17.00;99.90;;;;;;5078819;27;20133;-65
2022/10/21 12:09:57;;;;;;;1999.90;999.90;;;17.00;99.90;;;;;;5106981;28;20039;-65
2022/10/21 12:12:31;;;;;;;1999.90;999.90;;;17.00;99.90;;;;;;5100014;28;20051;-65
2022/10/21 12:15:01;;;;;;;1999.90;999.90;;;17.10;99.90;;;;;;5108055;27;20027;-65
2022/10/21 12:17:28;;;;;;;1999.90;999.90;;;17.10;99.90;;;;;;5103865;28;20035;-65